SWA3222 KOAK-KRNO
Flight info
| Callsign | SWA3222 |
|---|---|
| Flight time | 0h 34m |
| Altitude | 21000 |
| Route | OAK6 OAK ORRCA ORRCA1 |
| Aircraft | B737/M-SDE2E3GIJ4RWZ/LB1D1 |
Departure
| Time | 2026-04-28 19:18 |
|---|---|
| Airport | San Francisco Bay Oakland International Airport (KOAK) |
Arrival
| Time | 2026-04-28 19:52 |
|---|---|
| Airport | Reno Tahoe International Airport (KRNO) |
| Time | Latitude | Longitude | Altitude | Speed | Heading |
|---|---|---|---|---|---|
| 2026-04-28 18:40 | 37.71052 | -122.21194 | 8 ft | 0 kts | 80° |
| 2026-04-28 19:09 | 37.71049 | -122.21217 | 8 ft | 4 kts | 81° |
| 2026-04-28 19:09 | 37.71046 | -122.21243 | 8 ft | 4 kts | 80° |
| 2026-04-28 19:09 | 37.71040 | -122.21276 | 8 ft | 4 kts | 78° |
| 2026-04-28 19:10 | 37.71036 | -122.21310 | 8 ft | 4 kts | 91° |
| 2026-04-28 19:10 | 37.71040 | -122.21336 | -63 ft | 4 kts | 110° |
| 2026-04-28 19:10 | 37.71044 | -122.21350 | -133 ft | 1 kts | 110° |
| 2026-04-28 19:14 | 37.71040 | -122.21345 | -113 ft | 1 kts | 145° |
| 2026-04-28 19:14 | 37.71031 | -122.21359 | 8 ft | 4 kts | 248° |
| 2026-04-28 19:14 | 37.70997 | -122.21392 | -155 ft | 9 kts | 211° |
| 2026-04-28 19:14 | 37.70929 | -122.21453 | 8 ft | 14 kts | 215° |
| 2026-04-28 19:15 | 37.70870 | -122.21551 | 8 ft | 14 kts | 258° |
| 2026-04-28 19:15 | 37.70818 | -122.21652 | 10 ft | 14 kts | 217° |
| 2026-04-28 19:15 | 37.70743 | -122.21725 | 8 ft | 13 kts | 220° |
| 2026-04-28 19:15 | 37.70697 | -122.21774 | 9 ft | 13 kts | 220° |
| 2026-04-28 19:16 | 37.70601 | -122.21729 | 9 ft | 13 kts | 129° |
| 2026-04-28 19:16 | 37.70535 | -122.21629 | 8 ft | 17 kts | 130° |
| 2026-04-28 19:16 | 37.70456 | -122.21512 | 8 ft | 17 kts | 131° |
| 2026-04-28 19:16 | 37.70373 | -122.21408 | 8 ft | 17 kts | 153° |
| 2026-04-28 19:17 | 37.70267 | -122.21358 | 8 ft | 16 kts | 169° |
| 2026-04-28 19:17 | 37.70173 | -122.21417 | 8 ft | 15 kts | 233° |
| 2026-04-28 19:17 | 37.70229 | -122.21545 | 7 ft | 31 kts | 309° |
| 2026-04-28 19:17 | 37.70526 | -122.22001 | 10 ft | 103 kts | 311° |
| 2026-04-28 19:18 | 37.71118 | -122.22885 | 16 ft | 157 kts | 310° |
| 2026-04-28 19:18 | 37.71896 | -122.23930 | 553 ft | 162 kts | 314° |
| 2026-04-28 19:18 | 37.72666 | -122.24897 | 1564 ft | 151 kts | 311° |
| 2026-04-28 19:18 | 37.73324 | -122.26078 | 1972 ft | 179 kts | 302° |
| 2026-04-28 19:19 | 37.74080 | -122.27542 | 2018 ft | 217 kts | 303° |
| 2026-04-28 19:19 | 37.74928 | -122.29174 | 1999 ft | 225 kts | 302° |
| 2026-04-28 19:19 | 37.75823 | -122.30891 | 2013 ft | 241 kts | 303° |
| 2026-04-28 19:19 | 37.76898 | -122.32508 | 1984 ft | 243 kts | 325° |
| 2026-04-28 19:20 | 37.78500 | -122.33088 | 2058 ft | 247 kts | 4° |
| 2026-04-28 19:20 | 37.80109 | -122.32257 | 2557 ft | 259 kts | 39° |
| 2026-04-28 19:20 | 37.81469 | -122.30772 | 3629 ft | 257 kts | 40° |
| 2026-04-28 19:20 | 37.82819 | -122.29281 | 4659 ft | 258 kts | 40° |
| 2026-04-28 19:21 | 37.84173 | -122.27776 | 5662 ft | 260 kts | 41° |
| 2026-04-28 19:21 | 37.85545 | -122.26246 | 6598 ft | 266 kts | 41° |
| 2026-04-28 19:21 | 37.86935 | -122.24692 | 7568 ft | 269 kts | 41° |
| 2026-04-28 19:21 | 37.88344 | -122.23110 | 8592 ft | 273 kts | 41° |
| 2026-04-28 19:22 | 37.89756 | -122.21481 | 9650 ft | 277 kts | 42° |
| 2026-04-28 19:22 | 37.90707 | -122.20341 | 10344 ft | 281 kts | 42° |
| 2026-04-28 19:22 | 37.92696 | -122.17940 | 10814 ft | 318 kts | 43° |
| 2026-04-28 19:22 | 37.94364 | -122.15923 | 11236 ft | 339 kts | 43° |
| 2026-04-28 19:23 | 37.96093 | -122.13833 | 12066 ft | 346 kts | 43° |
| 2026-04-28 19:23 | 37.97848 | -122.11713 | 12981 ft | 351 kts | 42° |
| 2026-04-28 19:23 | 37.99630 | -122.09564 | 13935 ft | 356 kts | 42° |
| 2026-04-28 19:23 | 38.01441 | -122.07378 | 14810 ft | 361 kts | 42° |
| 2026-04-28 19:24 | 38.03264 | -122.05179 | 15778 ft | 363 kts | 41° |
| 2026-04-28 19:24 | 38.05103 | -122.02962 | 16735 ft | 366 kts | 41° |
| 2026-04-28 19:24 | 38.06960 | -122.00722 | 17642 ft | 370 kts | 41° |
| 2026-04-28 19:24 | 38.08837 | -121.98455 | 18520 ft | 374 kts | 41° |
| 2026-04-28 19:25 | 38.10732 | -121.96167 | 19297 ft | 378 kts | 40° |
| 2026-04-28 19:25 | 38.12641 | -121.93861 | 20087 ft | 380 kts | 40° |
| 2026-04-28 19:25 | 38.14560 | -121.91540 | 20649 ft | 381 kts | 40° |
| 2026-04-28 19:25 | 38.16480 | -121.89215 | 20941 ft | 383 kts | 40° |
| 2026-04-28 19:26 | 38.18415 | -121.86872 | 20931 ft | 386 kts | 40° |
| 2026-04-28 19:26 | 38.20371 | -121.84499 | 21224 ft | 389 kts | 40° |
| 2026-04-28 19:26 | 38.22326 | -121.82126 | 21166 ft | 386 kts | 40° |
| 2026-04-28 19:26 | 38.24257 | -121.79778 | 21162 ft | 382 kts | 40° |
| 2026-04-28 19:27 | 38.26178 | -121.77443 | 21171 ft | 383 kts | 40° |
| 2026-04-28 19:27 | 38.28110 | -121.75092 | 21179 ft | 384 kts | 40° |
| 2026-04-28 19:27 | 38.30042 | -121.72740 | 21176 ft | 384 kts | 40° |
| 2026-04-28 19:27 | 38.31973 | -121.70387 | 21174 ft | 385 kts | 40° |
| 2026-04-28 19:28 | 38.33903 | -121.68034 | 21172 ft | 384 kts | 40° |
| 2026-04-28 19:28 | 38.35838 | -121.65673 | 21178 ft | 384 kts | 40° |
| 2026-04-28 19:28 | 38.37770 | -121.63313 | 21181 ft | 384 kts | 40° |
| 2026-04-28 19:28 | 38.39699 | -121.60956 | 21184 ft | 384 kts | 40° |
| 2026-04-28 19:29 | 38.41627 | -121.58599 | 21186 ft | 384 kts | 40° |
| 2026-04-28 19:29 | 38.42901 | -121.57039 | 21181 ft | 384 kts | 41° |
| 2026-04-28 19:29 | 38.45475 | -121.53870 | 21179 ft | 384 kts | 41° |
| 2026-04-28 19:29 | 38.47372 | -121.51473 | 21181 ft | 384 kts | 42° |
| 2026-04-28 19:30 | 38.49261 | -121.49059 | 21191 ft | 384 kts | 42° |
| 2026-04-28 19:30 | 38.51146 | -121.46643 | 21187 ft | 384 kts | 42° |
| 2026-04-28 19:30 | 38.53034 | -121.44221 | 21182 ft | 384 kts | 42° |
| 2026-04-28 19:30 | 38.54895 | -121.41837 | 21186 ft | 384 kts | 42° |
| 2026-04-28 19:31 | 38.56783 | -121.39418 | 21167 ft | 384 kts | 42° |
| 2026-04-28 19:31 | 38.58673 | -121.36995 | 21163 ft | 385 kts | 42° |
| 2026-04-28 19:31 | 38.60564 | -121.34573 | 21170 ft | 384 kts | 42° |
| 2026-04-28 19:31 | 38.62454 | -121.32151 | 21167 ft | 384 kts | 42° |
| 2026-04-28 19:32 | 38.64342 | -121.29729 | 21177 ft | 385 kts | 42° |
| 2026-04-28 19:32 | 38.66230 | -121.27304 | 21178 ft | 385 kts | 42° |
| 2026-04-28 19:32 | 38.68123 | -121.24872 | 21174 ft | 386 kts | 42° |
| 2026-04-28 19:32 | 38.70016 | -121.22438 | 21171 ft | 386 kts | 42° |
| 2026-04-28 19:33 | 38.71911 | -121.20001 | 21177 ft | 386 kts | 43° |
| 2026-04-28 19:33 | 38.73805 | -121.17562 | 21176 ft | 386 kts | 43° |
| 2026-04-28 19:33 | 38.75696 | -121.15124 | 21184 ft | 387 kts | 43° |
| 2026-04-28 19:33 | 38.77598 | -121.12672 | 21167 ft | 387 kts | 43° |
| 2026-04-28 19:34 | 38.79494 | -121.10226 | 21180 ft | 387 kts | 43° |
| 2026-04-28 19:34 | 38.81390 | -121.07776 | 21175 ft | 387 kts | 43° |
| 2026-04-28 19:34 | 38.83286 | -121.05322 | 21183 ft | 387 kts | 43° |
| 2026-04-28 19:34 | 38.85181 | -121.02870 | 21180 ft | 387 kts | 43° |
| 2026-04-28 19:35 | 38.87076 | -121.00416 | 21190 ft | 387 kts | 43° |
| 2026-04-28 19:35 | 38.88971 | -120.97960 | 21187 ft | 387 kts | 43° |
| 2026-04-28 19:35 | 38.90870 | -120.95499 | 21181 ft | 388 kts | 43° |
| 2026-04-28 19:35 | 38.92768 | -120.93036 | 21184 ft | 388 kts | 43° |
| 2026-04-28 19:36 | 38.94668 | -120.90568 | 21177 ft | 388 kts | 43° |
| 2026-04-28 19:36 | 38.96565 | -120.88102 | 21179 ft | 388 kts | 43° |
| 2026-04-28 19:36 | 38.98467 | -120.85626 | 21162 ft | 388 kts | 43° |
| 2026-04-28 19:36 | 39.00361 | -120.83162 | 21176 ft | 388 kts | 43° |
| 2026-04-28 19:37 | 39.02256 | -120.80693 | 21160 ft | 388 kts | 43° |
| 2026-04-28 19:37 | 39.03508 | -120.79060 | 21162 ft | 388 kts | 43° |
| 2026-04-28 19:37 | 39.06040 | -120.75757 | 21183 ft | 387 kts | 43° |
| 2026-04-28 19:37 | 39.07910 | -120.73312 | 21175 ft | 388 kts | 43° |
| 2026-04-28 19:38 | 39.09828 | -120.70805 | 21188 ft | 388 kts | 43° |
| 2026-04-28 19:38 | 39.11704 | -120.68349 | 21190 ft | 389 kts | 43° |
| 2026-04-28 19:38 | 39.13601 | -120.65865 | 21197 ft | 389 kts | 43° |
| 2026-04-28 19:38 | 39.15501 | -120.63374 | 21198 ft | 390 kts | 43° |
| 2026-04-28 19:39 | 39.17403 | -120.60877 | 21205 ft | 390 kts | 44° |
| 2026-04-28 19:39 | 39.19304 | -120.58380 | 21202 ft | 390 kts | 44° |
| 2026-04-28 19:39 | 39.21188 | -120.55903 | 21193 ft | 386 kts | 44° |
| 2026-04-28 19:39 | 39.23066 | -120.53433 | 21178 ft | 382 kts | 43° |
| 2026-04-28 19:40 | 39.24907 | -120.51009 | 21188 ft | 377 kts | 44° |
| 2026-04-28 19:40 | 39.26733 | -120.48604 | 21205 ft | 375 kts | 44° |
| 2026-04-28 19:40 | 39.28561 | -120.46196 | 21181 ft | 376 kts | 44° |
| 2026-04-28 19:40 | 39.30397 | -120.43772 | 20919 ft | 379 kts | 44° |
| 2026-04-28 19:41 | 39.32241 | -120.41339 | 20423 ft | 378 kts | 44° |
| 2026-04-28 19:41 | 39.34073 | -120.38917 | 19896 ft | 374 kts | 44° |
| 2026-04-28 19:41 | 39.35878 | -120.36529 | 19310 ft | 370 kts | 44° |
| 2026-04-28 19:41 | 39.37673 | -120.34155 | 18738 ft | 368 kts | 44° |
| 2026-04-28 19:42 | 39.38607 | -120.32917 | 18435 ft | 366 kts | 44° |
| 2026-04-28 19:42 | 39.40380 | -120.30566 | 17774 ft | 363 kts | 45° |
| 2026-04-28 19:42 | 39.41511 | -120.28972 | 17385 ft | 360 kts | 47° |
| 2026-04-28 19:43 | 39.43659 | -120.25687 | 16621 ft | 356 kts | 49° |
| 2026-04-28 19:43 | 39.45232 | -120.23223 | 15968 ft | 354 kts | 50° |
| 2026-04-28 19:43 | 39.46806 | -120.20773 | 15313 ft | 354 kts | 50° |
| 2026-04-28 19:43 | 39.48383 | -120.18342 | 14713 ft | 351 kts | 50° |
| 2026-04-28 19:44 | 39.49957 | -120.15930 | 14149 ft | 348 kts | 50° |
| 2026-04-28 19:44 | 39.51485 | -120.13585 | 13831 ft | 336 kts | 50° |
| 2026-04-28 19:44 | 39.52964 | -120.11316 | 13358 ft | 331 kts | 50° |
| 2026-04-28 19:44 | 39.54434 | -120.09059 | 12928 ft | 325 kts | 50° |
| 2026-04-28 19:45 | 39.55879 | -120.06840 | 12522 ft | 319 kts | 50° |
| 2026-04-28 19:45 | 39.57298 | -120.04661 | 12127 ft | 314 kts | 50° |
| 2026-04-28 19:45 | 39.58697 | -120.02510 | 11740 ft | 309 kts | 50° |
| 2026-04-28 19:45 | 39.60069 | -120.00395 | 11353 ft | 304 kts | 50° |
| 2026-04-28 19:46 | 39.61419 | -119.98313 | 10984 ft | 300 kts | 50° |
| 2026-04-28 19:46 | 39.62753 | -119.96255 | 10623 ft | 295 kts | 50° |
| 2026-04-28 19:46 | 39.64063 | -119.94231 | 10258 ft | 290 kts | 50° |
| 2026-04-28 19:46 | 39.65357 | -119.92233 | 9913 ft | 285 kts | 50° |
| 2026-04-28 19:47 | 39.66606 | -119.90305 | 9529 ft | 282 kts | 50° |
| 2026-04-28 19:47 | 39.67854 | -119.88373 | 9192 ft | 277 kts | 50° |
| 2026-04-28 19:47 | 39.68969 | -119.86352 | 8791 ft | 273 kts | 64° |
| 2026-04-28 19:47 | 39.69490 | -119.84015 | 8451 ft | 269 kts | 86° |
| 2026-04-28 19:48 | 39.69302 | -119.81625 | 8125 ft | 265 kts | 107° |
| 2026-04-28 19:48 | 39.68815 | -119.80148 | 7905 ft | 263 kts | 120° |
| 2026-04-28 19:48 | 39.67725 | -119.78357 | 7803 ft | 248 kts | 137° |
| 2026-04-28 19:48 | 39.66357 | -119.77145 | 7695 ft | 231 kts | 155° |
| 2026-04-28 19:49 | 39.64875 | -119.76595 | 7587 ft | 214 kts | 173° |
| 2026-04-28 19:49 | 39.63438 | -119.76593 | 7463 ft | 199 kts | 181° |
| 2026-04-28 19:49 | 39.62120 | -119.76630 | 7328 ft | 179 kts | 180° |
| 2026-04-28 19:49 | 39.60940 | -119.76641 | 7168 ft | 162 kts | 179° |
| 2026-04-28 19:50 | 39.58721 | -119.76652 | 6414 ft | 158 kts | 179° |
| 2026-04-28 19:50 | 39.57664 | -119.76652 | 6170 ft | 142 kts | 178° |
| 2026-04-28 19:50 | 39.56689 | -119.76656 | 5766 ft | 139 kts | 181° |
| 2026-04-28 19:51 | 39.55743 | -119.76664 | 5426 ft | 133 kts | 179° |
| 2026-04-28 19:51 | 39.54693 | -119.76674 | 5331 ft | 170 kts | 180° |
| 2026-04-28 19:51 | 39.53573 | -119.76675 | 5164 ft | 151 kts | 179° |
| 2026-04-28 19:51 | 39.52557 | -119.76680 | 4878 ft | 143 kts | 180° |
| 2026-04-28 19:52 | 39.51559 | -119.76682 | 4626 ft | 146 kts | 179° |
| 2026-04-28 19:52 | 39.50584 | -119.76677 | 4549 ft | 123 kts | 180° |
| 2026-04-28 19:52 | 39.49877 | -119.76679 | 4551 ft | 80 kts | 182° |
| 2026-04-28 19:52 | 39.49574 | -119.76704 | 4548 ft | 31 kts | 202° |
| 2026-04-28 19:53 | 39.49397 | -119.76840 | 4547 ft | 29 kts | 212° |
| 2026-04-28 19:53 | 39.49278 | -119.76998 | 4547 ft | 16 kts | 236° |
| 2026-04-28 19:53 | 39.49297 | -119.77070 | 4546 ft | 11 kts | 353° |
| 2026-04-28 19:53 | 39.49401 | -119.77068 | 4543 ft | 21 kts | 359° |
| 2026-04-28 19:54 | 39.49578 | -119.77069 | 4543 ft | 26 kts | 360° |
| 2026-04-28 19:54 | 39.49751 | -119.77069 | 4542 ft | 24 kts | 0° |
| 2026-04-28 19:54 | 39.49912 | -119.77072 | 4545 ft | 23 kts | 359° |
| 2026-04-28 19:54 | 39.50068 | -119.77070 | 4541 ft | 22 kts | 1° |
| 2026-04-28 19:55 | 39.50219 | -119.77064 | 4541 ft | 21 kts | 1° |
| 2026-04-28 19:55 | 39.50350 | -119.77068 | 4539 ft | 14 kts | 331° |
| 2026-04-28 19:55 | 39.50366 | -119.77184 | 4542 ft | 14 kts | 267° |
| 2026-04-28 19:55 | 39.50371 | -119.77293 | 4536 ft | 9 kts | 275° |
| 2026-04-28 19:56 | 39.50377 | -119.77360 | 4536 ft | 6 kts | 290° |
| 2026-04-28 19:56 | 39.50417 | -119.77375 | 4538 ft | 5 kts | 360° |
| 2026-04-28 19:56 | 39.50428 | -119.77375 | 4539 ft | 0 kts | 1° |
| 2026-04-28 19:56 | 39.50436 | -119.77375 | 4536 ft | 2 kts | 360° |
| 2026-04-28 19:57 | 39.50440 | -119.77375 | 4536 ft | 0 kts | 359° |